Time;durP1;ratioP1;P1;durP2;ratioP2;P2;SDS_P1;SDS_P2;PMS_P1;PMS_P2;Temp;Humidity;BMP_temperature;BMP_pressure;BME280_temperature;BME280_humidity;BME280_pressure;Samples;Min_cycle;Max_cycle;Signal;HPM_P1;HPM_P2
2021/08/22 00:02:03;;;;;;;78.88;39.72;;;;;;;17.49;100.00;101559.38;4967041;28;20412;-87
2021/08/22 00:04:44;;;;;;;82.90;41.15;;;;;;;17.49;100.00;101551.38;4969599;28;20061;-87
2021/08/22 00:19:17;;;;;;;82.70;35.88;;;;;;;17.49;100.00;101538.06;4972548;28;20443;-83
2021/08/22 00:22:18;;;;;;;63.75;30.60;;;;;;;17.46;100.00;101539.88;4991759;28;20038;-84
2021/08/22 00:25:38;;;;;;;67.88;32.42;;;;;;;17.42;100.00;101527.47;4957974;28;20049;-84
2021/08/22 00:28:52;;;;;;;72.75;31.70;;;;;;;17.34;100.00;101535.44;4974735;28;20065;-85
2021/08/22 00:32:01;;;;;;;72.43;33.15;;;;;;;17.27;100.00;101529.22;4982152;28;20038;-83
2021/08/22 00:34:52;;;;;;;67.40;31.58;;;;;;;17.19;100.00;101534.53;4952832;28;20068;-87
2021/08/22 00:37:29;;;;;;;80.57;34.35;;;;;;;17.12;100.00;101535.44;4911415;28;20044;-81
2021/08/22 00:40:25;;;;;;;;;;;;;;;;;;;;;
2021/08/22 00:43:14;;;;;;;;;;;;;;;;;;;;;
2021/08/22 00:45:52;;;;;;;73.53;34.53;;;;;;;17.00;100.00;101532.78;5052277;28;20047;-84
2021/08/22 00:48:20;;;;;;;85.80;35.38;;;;;;;16.97;100.00;101540.72;5085389;28;20031;-87
2021/08/22 00:51:43;;;;;;;73.80;34.38;;;;;;;16.95;100.00;101537.19;5082974;28;20043;-83
2021/08/22 00:54:11;;;;;;;80.07;33.00;;;;;;;16.93;100.00;101538.94;5080506;28;20042;-81
2021/08/22 00:56:39;;;;;;;92.82;38.13;;;;;;;16.90;100.00;101541.59;5062522;28;20033;-83
2021/08/22 00:59:53;;;;;;;98.47;39.05;;;;;;;16.86;100.00;101538.91;5074354;28;20497;-86
2021/08/22 01:02:46;;;;;;;102.28;40.17;;;;;;;16.91;100.00;101546.94;5092123;28;20032;-85
2021/08/22 01:05:20;;;;;;;116.00;43.60;;;;;;;16.96;100.00;101547.81;5077633;28;20394;-83
2021/08/22 01:08:22;;;;;;;109.18;44.60;;;;;;;17.00;100.00;101536.31;5095932;28;20478;-85
2021/08/22 01:10:55;;;;;;;107.70;41.78;;;;;;;17.03;100.00;101535.44;5082651;28;20035;-82
2021/08/22 01:13:24;;;;;;;104.65;42.95;;;;;;;17.06;100.00;101539.88;5081505;28;20035;-84
2021/08/22 01:15:58;;;;;;;115.22;46.53;;;;;;;17.08;100.00;101533.66;5096980;28;20039;-84
2021/08/22 01:18:27;;;;;;;;;;;;;;;17.09;100.00;101532.78;5095726;28;20036;-83
2021/08/22 01:21:26;;;;;;;111.45;42.75;;;;;;;17.10;100.00;101536.31;5084218;28;19920;-85
2021/08/22 01:24:18;;;;;;;120.22;45.75;;;;;;;17.11;100.00;101533.66;5096006;28;20043;-86
2021/08/22 01:26:45;;;;;;;117.85;44.53;;;;;;;17.09;100.00;101523.91;5096387;28;20035;-78
2021/08/22 01:29:15;;;;;;;117.40;44.92;;;;;;;17.09;100.00;101527.47;5097371;28;20394;-82
2021/08/22 01:31:59;;;;;;;114.55;45.63;;;;;;;17.10;100.00;101526.56;5057798;28;20040;-81
2021/08/22 01:34:30;;;;;;;114.45;46.28;;;;;;;17.08;100.00;101523.03;5086050;28;20035;-83
2021/08/22 01:37:00;;;;;;;114.15;46.33;;;;;;;17.10;100.00;101520.38;5095169;28;20023;-82
2021/08/22 01:39:55;;;;;;;109.50;45.95;;;;;;;17.12;100.00;101518.56;5031189;28;20049;-83
2021/08/22 01:42:35;;;;;;;88.32;40.05;;;;;;;17.14;100.00;101523.00;5005316;28;20026;-82
2021/08/22 01:45:22;;;;;;;125.65;46.88;;;;;;;17.13;100.00;101526.59;5046812;28;20036;-85
2021/08/22 01:47:50;;;;;;;130.98;45.55;;;;;;;17.12;100.00;101516.81;5010247;28;20052;-82
2021/08/22 01:50:59;;;;;;;125.20;48.05;;;;;;;17.14;100.00;101522.13;5009727;28;20030;-77
2021/08/22 01:53:52;;;;;;;140.88;50.15;;;;;;;17.15;100.00;101523.91;5010336;28;20065;-81
2021/08/22 01:56:18;;;;;;;140.63;51.63;;;;;;;17.13;100.00;101520.34;5010974;28;20042;-82
2021/08/22 01:58:43;;;;;;;131.38;49.38;;;;;;;17.12;100.00;101514.16;5012010;28;20389;-82
2021/08/22 02:01:12;;;;;;;136.65;52.13;;;;;;;17.11;100.00;101523.03;4991663;28;20042;-82
2021/08/22 02:03:56;;;;;;;122.35;45.65;;;;;;;17.11;100.00;101517.69;4997368;28;20037;-79
2021/08/22 02:06:46;;;;;;;152.20;54.92;;;;;;;17.13;100.00;101526.59;5010512;28;20032;-82
2021/08/22 02:09:13;;;;;;;133.00;51.95;;;;;;;17.15;100.00;101524.78;5011350;28;20033;-83
2021/08/22 02:12:03;;;;;;;140.48;51.33;;;;;;;17.15;100.00;101522.13;4993813;28;20518;-83
2021/08/22 02:14:32;;;;;;;146.63;52.00;;;;;;;17.16;100.00;101523.91;4993337;28;20038;-79
2021/08/22 02:17:05;;;;;;;126.15;47.88;;;;;;;17.19;100.00;101520.38;4995814;28;20054;-82
2021/08/22 02:19:31;;;;;;;132.35;47.92;;;;;;;17.18;100.00;101524.78;5027845;28;20506;-79
2021/08/22 02:21:58;;;;;;;123.88;47.05;;;;;;;17.15;100.00;101518.59;5011228;28;20041;-79
2021/08/22 02:24:33;;;;;;;109.72;40.13;;;;;;;17.12;100.00;101516.81;4993914;28;20030;-79
2021/08/22 02:26:59;;;;;;;108.10;38.03;;;;;;;17.08;100.00;101515.06;4997992;28;20411;-82
2021/08/22 02:29:25;;;;;;;85.03;34.85;;;;;;;17.06;100.00;101516.81;5011341;28;20495;-81
2021/08/22 02:31:50;;;;;;;97.10;38.13;;;;;;;17.03;100.00;101515.03;5010569;28;20054;-79
2021/08/22 02:34:16;;;;;;;86.50;37.58;;;;;;;17.02;100.00;101518.59;5011860;28;20033;-85
2021/08/22 02:37:05;;;;;;;86.82;37.40;;;;;;;17.00;100.00;101524.78;5010372;28;20065;-81
2021/08/22 02:39:30;;;;;;;91.85;39.50;;;;;;;17.01;100.00;101522.13;5011030;28;20049;-83
2021/08/22 02:41:56;;;;;;;86.20;38.38;;;;;;;17.00;100.00;101524.78;5010059;28;20030;-84
2021/08/22 02:44:23;;;;;;;100.88;38.83;;;;;;;17.02;100.00;101529.22;5012676;28;20112;-83
2021/08/22 02:46:49;;;;;;;79.75;32.90;;;;;;;17.04;100.00;101521.25;4999697;28;20034;-82
2021/08/22 02:49:15;;;;;;;53.22;23.80;;;;;;;17.02;100.00;101528.31;5012715;28;20232;-83
2021/08/22 02:52:00;;;;;;;44.00;17.52;;;;;;;17.02;100.00;101528.31;5002728;28;20403;-87
2021/08/22 02:54:26;;;;;;;35.30;14.15;;;;;;;16.96;100.00;101523.91;4996063;28;20506;-85
2021/08/22 02:56:54;;;;;;;32.00;10.88;;;;;;;16.94;100.00;101522.13;5009071;28;20094;-87
2021/08/22 02:59:19;;;;;;;31.27;10.75;;;;;;;16.91;100.00;101520.34;5011309;28;20033;-80
2021/08/22 03:01:45;;;;;;;19.60;7.90;;;;;;;16.90;100.00;101517.69;5009197;28;20037;-84
2021/08/22 03:04:11;;;;;;;20.45;7.38;;;;;;;16.86;100.00;101514.09;5012697;28;20377;-79
2021/08/22 03:06:56;;;;;;;19.60;7.55;;;;;;;16.86;100.00;101512.34;5012964;28;20095;-83
2021/08/22 03:09:22;;;;;;;16.60;7.43;;;;;;;16.78;100.00;101508.78;5011967;28;20033;-83
2021/08/22 03:11:54;;;;;;;18.13;7.47;;;;;;;16.76;100.00;101504.34;5011245;28;20034;-88
2021/08/22 03:14:20;;;;;;;22.17;7.72;;;;;;;16.74;100.00;101511.41;5011512;28;20034;-80
2021/08/22 03:16:46;;;;;;;17.52;7.38;;;;;;;16.69;100.00;101506.09;5010297;28;20440;-84
2021/08/22 03:19:11;;;;;;;15.02;7.45;;;;;;;16.62;100.00;101509.66;5013068;28;20392;-80
2021/08/22 03:21:41;;;;;;;21.75;8.00;;;;;;;16.54;100.00;101514.06;5012607;28;20025;-81
2021/08/22 03:24:07;;;;;;;20.75;7.60;;;;;;;16.50;100.00;101519.34;5010463;28;20026;-82
2021/08/22 03:26:34;;;;;;;21.90;8.52;;;;;;;16.45;100.00;101521.09;5009667;28;20030;-82
2021/08/22 03:29:00;;;;;;;20.05;8.35;;;;;;;16.45;100.00;101520.22;4998147;28;20026;-83
2021/08/22 03:31:26;;;;;;;26.58;10.25;;;;;;;16.44;100.00;101511.38;5009985;28;20041;-80
2021/08/22 03:33:51;;;;;;;24.98;12.02;;;;;;;16.45;100.00;101521.09;4995747;28;20422;-85
2021/08/22 03:36:18;;;;;;;31.58;12.52;;;;;;;16.45;100.00;101515.78;5003784;28;20034;-84
2021/08/22 03:39:04;;;;;;;36.22;14.15;;;;;;;16.42;100.00;101515.78;5011183;28;20050;-86
2021/08/22 03:41:30;;;;;;;35.13;15.18;;;;;;;16.40;100.00;101516.66;4998978;28;20045;-86
2021/08/22 03:43:55;;;;;;;51.83;17.30;;;;;;;16.37;100.00;101514.88;4995849;28;20026;-80
2021/08/22 03:46:21;;;;;;;53.10;19.75;;;;;;;16.33;100.00;101515.75;5010848;28;20075;-84
2021/08/22 03:48:49;;;;;;;65.53;22.25;;;;;;;16.32;100.00;101514.00;5011663;28;20154;-83
2021/08/22 03:51:15;;;;;;;71.88;24.08;;;;;;;16.28;100.00;101521.03;5012504;28;20116;-78
2021/08/22 03:53:40;;;;;;;87.72;27.17;;;;;;;16.27;100.00;101521.91;5010282;28;20042;-82
2021/08/22 03:56:08;;;;;;;95.38;29.65;;;;;;;16.25;100.00;101523.69;5002367;28;20095;-85
2021/08/22 03:58:34;;;;;;;92.80;27.70;;;;;;;16.22;100.00;101517.47;5011000;28;20018;-83
2021/08/22 04:01:00;;;;;;;90.72;29.80;;;;;;;16.21;100.00;101521.00;5008394;28;20045;-83
2021/08/22 04:03:27;;;;;;;116.72;33.60;;;;;;;16.24;100.00;101521.03;5012571;28;20038;-87
2021/08/22 04:06:12;;;;;;;109.10;33.10;;;;;;;16.27;100.00;101518.38;5011779;28;20472;-84
2021/08/22 04:08:39;;;;;;;124.05;37.58;;;;;;;16.32;100.00;101524.63;5012281;28;20187;-90
2021/08/22 04:11:05;;;;;;;147.40;41.97;;;;;;;16.35;100.00;101516.66;5012867;28;20048;-83
2021/08/22 04:13:31;;;;;;;158.43;45.30;;;;;;;16.40;100.00;101521.97;5004822;28;20461;-81
2021/08/22 04:15:56;;;;;;;179.88;49.45;;;;;;;16.44;100.00;101523.75;5006037;28;20029;-85
2021/08/22 04:18:22;;;;;;;171.05;48.22;;;;;;;16.46;100.00;101514.03;5009543;28;20476;-83
2021/08/22 04:20:47;;;;;;;168.43;49.00;;;;;;;16.46;100.00;101517.56;5008918;28;20046;-85
2021/08/22 04:23:15;;;;;;;174.98;49.03;;;;;;;16.48;100.00;101515.81;5001216;28;20124;-89
2021/08/22 04:25:42;;;;;;;192.95;51.15;;;;;;;16.50;100.00;101514.03;5002275;28;20029;-82
2021/08/22 04:28:08;;;;;;;187.48;54.30;;;;;;;16.52;100.00;101511.38;5011726;28;20565;-84
2021/08/22 04:30:36;;;;;;;176.70;52.15;;;;;;;16.55;100.00;101521.13;5010486;28;20030;-88
2021/08/22 04:33:01;;;;;;;197.82;53.90;;;;;;;16.58;100.00;101516.72;5003158;28;20033;-83
2021/08/22 04:35:48;;;;;;;189.65;55.03;;;;;;;16.60;100.00;101509.63;5011478;28;20022;-86
2021/08/22 04:38:14;;;;;;;174.63;52.70;;;;;;;16.60;100.00;101514.06;5009390;28;20038;-85
2021/08/22 04:40:59;;;;;;;153.15;51.25;;;;;;;16.61;100.00;101511.41;5011139;28;20026;-83
2021/08/22 04:43:25;;;;;;;199.88;56.97;;;;;;;16.60;100.00;101511.41;5007085;28;20038;-88
2021/08/22 04:46:10;;;;;;;183.30;56.28;;;;;;;16.62;100.00;101507.88;4999041;28;20442;-79
2021/08/22 04:48:36;;;;;;;200.65;59.20;;;;;;;16.61;100.00;101507.88;5002196;28;20026;-83
2021/08/22 04:51:21;;;;;;;195.57;58.75;;;;;;;16.61;100.00;101510.53;5010171;28;20549;-86
2021/08/22 04:53:47;;;;;;;183.85;56.22;;;;;;;16.61;100.00;101511.41;5004560;28;20030;-82
2021/08/22 04:56:13;;;;;;;156.27;52.42;;;;;;;16.61;100.00;101499.91;4994579;28;20125;-79
2021/08/22 04:58:39;;;;;;;183.70;57.22;;;;;;;16.60;100.00;101503.44;4995069;28;20431;-81
2021/08/22 05:01:04;;;;;;;184.35;56.38;;;;;;;16.62;100.00;101496.38;4991405;28;20448;-87
2021/08/22 05:03:50;;;;;;;172.40;58.03;;;;;;;16.62;100.00;101504.34;5008630;28;20038;-86
2021/08/22 05:06:17;;;;;;;155.85;53.70;;;;;;;16.63;100.00;101509.66;4995803;28;20038;-84
2021/08/22 05:09:03;;;;;;;168.18;54.13;;;;;;;16.67;100.00;101505.19;4994020;28;20022;-84
2021/08/22 05:11:31;;;;;;;180.80;58.33;;;;;;;16.68;100.00;101512.28;4996489;28;20031;-85
2021/08/22 05:13:56;;;;;;;164.55;54.00;;;;;;;16.69;100.00;101511.41;5009084;28;20463;-81
2021/08/22 05:16:21;;;;;;;178.02;56.53;;;;;;;16.71;100.00;101514.94;5009609;28;20109;-80
2021/08/22 05:18:47;;;;;;;181.80;55.97;;;;;;;16.75;100.00;101508.75;4994893;28;20018;-81
2021/08/22 05:21:13;;;;;;;158.45;52.38;;;;;;;16.77;100.00;101514.97;5010458;28;20026;-83
2021/08/22 05:23:38;;;;;;;161.43;54.00;;;;;;;16.79;100.00;101521.19;5008241;28;20030;-81
2021/08/22 05:26:06;;;;;;;157.77;53.20;;;;;;;16.83;100.00;101522.06;4993488;28;20472;-86
2021/08/22 05:28:34;;;;;;;158.80;52.33;;;;;;;16.82;100.00;101520.28;5004592;28;20026;-80
2021/08/22 05:31:00;;;;;;;160.85;51.22;;;;;;;16.85;100.00;101521.19;5009712;28;20026;-86
2021/08/22 05:33:25;;;;;;;145.25;49.90;;;;;;;16.88;100.00;101522.97;5011788;28;20108;-85
2021/08/22 05:35:51;;;;;;;158.45;51.75;;;;;;;16.91;100.00;101519.47;5010022;28;20030;-83
2021/08/22 05:38:16;;;;;;;160.20;51.42;;;;;;;16.93;100.00;101518.59;5009328;28;20145;-77
2021/08/22 05:40:42;;;;;;;146.93;50.42;;;;;;;16.95;100.00;101523.91;5011205;28;20075;-83
2021/08/22 05:43:10;;;;;;;136.70;47.80;;;;;;;16.96;100.00;101523.91;4999116;28;20038;-83
2021/08/22 05:45:38;;;;;;;150.05;48.75;;;;;;;16.95;100.00;101531.88;4991089;28;20064;-83
2021/08/22 05:48:04;;;;;;;135.38;45.97;;;;;;;16.95;100.00;101530.09;5000617;28;20057;-81
2021/08/22 05:50:30;;;;;;;127.57;48.15;;;;;;;16.95;100.00;101531.88;5006077;28;20061;-80
2021/08/22 05:52:55;;;;;;;138.68;49.78;;;;;;;16.95;100.00;101526.56;5012181;28;20506;-81
2021/08/22 05:55:21;;;;;;;125.03;46.78;;;;;;;16.96;100.00;101533.66;5007786;28;20041;-82
2021/08/22 05:57:47;;;;;;;121.95;45.78;;;;;;;16.95;100.00;101531.88;5000465;28;20029;-85
2021/08/22 06:00:32;;;;;;;126.35;47.67;;;;;;;16.97;100.00;101533.66;5003453;28;20396;-80
2021/08/22 06:02:58;;;;;;;141.13;48.17;;;;;;;17.01;100.00;101532.78;5015441;28;20052;-81
2021/08/22 06:05:24;;;;;;;136.85;48.67;;;;;;;17.06;100.00;101529.22;5012569;28;20495;-82
2021/08/22 06:08:09;;;;;;;141.00;49.70;;;;;;;17.08;100.00;101535.41;5004044;28;20029;-80
2021/08/22 06:10:55;;;;;;;143.23;48.60;;;;;;;17.10;100.00;101534.53;5010646;28;20037;-82
2021/08/22 06:13:20;;;;;;;150.07;53.13;;;;;;;17.14;100.00;101528.34;5010704;28;20098;-84
2021/08/22 06:15:46;;;;;;;139.50;51.38;;;;;;;17.19;100.00;101534.53;5012086;28;20037;-83
2021/08/22 06:18:11;;;;;;;135.80;50.47;;;;;;;17.23;100.00;101534.53;5012270;28;20098;-80
2021/08/22 06:20:37;;;;;;;106.72;44.58;;;;;;;17.24;100.00;101537.22;5011695;28;20034;-84
2021/08/22 06:23:02;;;;;;;104.68;44.80;;;;;;;17.24;100.00;101538.97;5011381;28;20494;-81
2021/08/22 06:25:28;;;;;;;90.00;42.13;;;;;;;17.28;100.00;101538.09;5015033;28;20020;-82
2021/08/22 06:27:53;;;;;;;76.57;39.00;;;;;;;17.30;100.00;101534.53;5058943;28;20029;-81
2021/08/22 06:30:19;;;;;;;60.95;32.58;;;;;;;17.35;100.00;101531.91;4997152;28;20068;-85
2021/08/22 06:32:44;;;;;;;60.30;32.17;;;;;;;17.34;100.00;101540.75;4997451;28;20032;-78
2021/08/22 06:35:10;;;;;;;58.70;32.08;;;;;;;17.38;100.00;101542.53;5005999;28;20033;-80
2021/08/22 06:37:39;;;;;;;56.25;32.47;;;;;;;17.41;100.00;101542.53;5009353;28;20038;-84
2021/08/22 06:40:24;;;;;;;61.38;30.80;;;;;;;17.43;100.00;101535.44;5004256;28;20060;-81
2021/08/22 06:42:56;;;;;;;51.55;28.45;;;;;;;17.43;100.00;101543.41;4998657;28;20052;-80
2021/08/22 06:45:43;;;;;;;50.67;30.00;;;;;;;17.46;100.00;101545.19;5009073;28;20053;-82
2021/08/22 06:48:11;;;;;;;57.22;29.92;;;;;;;17.46;100.00;101551.38;4990348;28;20038;-84
2021/08/22 06:50:56;;;;;;;54.00;28.98;;;;;;;17.45;100.00;101554.94;5008199;28;20041;-79
2021/08/22 06:53:25;;;;;;;43.03;25.23;;;;;;;17.44;100.00;101554.94;4995849;28;20057;-80
2021/08/22 06:55:50;;;;;;;46.05;26.98;;;;;;;17.45;100.00;101565.56;4992912;28;20038;-82
2021/08/22 06:58:36;;;;;;;52.42;28.73;;;;;;;17.44;100.00;101553.16;5004614;28;20054;-81
2021/08/22 07:01:01;;;;;;;50.33;28.05;;;;;;;17.46;100.00;101567.34;4994229;28;20038;-82
2021/08/22 07:03:27;;;;;;;45.15;26.15;;;;;;;17.46;100.00;101567.34;5003148;28;20030;-78
2021/08/22 07:05:53;;;;;;;44.22;26.05;;;;;;;17.45;100.00;101565.56;4997803;28;20048;-84
2021/08/22 07:08:18;;;;;;;45.60;26.67;;;;;;;17.43;100.00;101567.38;4994899;28;20393;-82
2021/08/22 07:10:44;;;;;;;54.58;27.55;;;;;;;17.49;100.00;101569.13;5001390;28;20472;-82
2021/08/22 07:13:09;;;;;;;41.42;24.02;;;;;;;17.48;100.00;101560.25;4999014;28;20026;-82
2021/08/22 07:15:35;;;;;;;41.75;24.30;;;;;;;17.58;100.00;101569.13;5001223;28;20049;-81
2021/08/22 07:18:01;;;;;;;36.88;21.30;;;;;;;17.67;100.00;101565.56;5001977;28;20033;-79
2021/08/22 07:20:27;;;;;;;33.15;19.88;;;;;;;17.79;99.50;101564.66;5003993;28;20022;-84
2021/08/22 07:22:52;;;;;;;31.00;20.35;;;;;;;17.96;99.46;101567.31;4993635;28;20022;-82
2021/08/22 07:25:20;;;;;;;25.95;17.73;;;;;;;18.10;98.11;101568.16;4993305;28;20099;-81
2021/08/22 07:27:46;;;;;;;31.88;18.10;;;;;;;18.24;97.12;101564.56;4995077;28;20057;-80
2021/08/22 07:30:15;;;;;;;25.25;16.17;;;;;;;18.39;96.57;101566.28;5000980;28;20030;-79
2021/08/22 07:32:40;;;;;;;29.63;18.63;;;;;;;18.59;96.62;101559.06;5006704;28;20034;-78
2021/08/22 07:35:26;;;;;;;22.65;15.30;;;;;;;18.67;94.59;101562.59;5000937;28;20026;-79
2021/08/22 07:37:55;;;;;;;24.77;16.45;;;;;;;18.79;94.48;101566.09;5005773;28;20494;-84
2021/08/22 07:40:20;;;;;;;21.00;13.68;;;;;;;18.85;93.33;101558.91;4999094;28;20115;-81
2021/08/22 07:42:46;;;;;;;22.80;13.40;;;;;;;19.02;92.83;101557.97;5002698;28;20491;-82
2021/08/22 07:45:12;;;;;;;26.60;13.52;;;;;;;19.31;91.46;101554.19;4992528;28;20038;-82
2021/08/22 07:47:37;;;;;;;21.67;12.15;;;;;;;19.65;90.93;101548.53;5002259;28;20026;-83
2021/08/22 07:50:04;;;;;;;22.00;13.05;;;;;;;20.07;92.21;101559.69;5006768;28;20037;-84
2021/08/22 07:52:32;;;;;;;18.20;12.52;;;;;;;20.34;87.82;101544.22;5006441;28;20031;-85
2021/08/22 07:55:01;;;;;;;18.70;11.98;;;;;;;20.54;86.59;101550.19;4999795;28;20381;-82
2021/08/22 07:57:46;;;;;;;16.92;12.13;;;;;;;20.62;85.95;101544.75;5006939;28;20026;-85
2021/08/22 08:00:18;;;;;;;18.80;11.45;;;;;;;20.70;85.48;101552.69;4997646;28;20052;-85
2021/08/22 08:02:43;;;;;;;14.57;10.35;;;;;;;20.79;84.66;101540.97;4998933;28;20026;-86
2021/08/22 08:05:29;;;;;;;17.30;11.70;;;;;;;20.95;85.56;101552.34;5005549;28;20030;-82
2021/08/22 08:08:14;;;;;;;19.27;10.90;;;;;;;20.82;82.72;101548.94;5004499;28;20037;-86
2021/08/22 08:10:40;;;;;;;19.27;11.85;;;;;;;20.65;82.70;101550.03;4993911;28;20042;-86
2021/08/22 08:13:05;;;;;;;26.05;12.35;;;;;;;20.26;86.17;101567.50;4990347;28;20038;-80
2021/08/22 08:15:30;;;;;;;17.58;11.05;;;;;;;19.97;85.27;101561.59;5001215;28;20020;-79
2021/08/22 08:17:56;;;;;;;19.00;11.35;;;;;;;19.66;86.31;101563.66;5002008;28;20037;-82
2021/08/22 08:20:21;;;;;;;16.13;11.75;;;;;;;19.42;88.23;101578.13;5017081;28;20062;-80
2021/08/22 08:22:47;;;;;;;16.40;11.73;;;;;;;19.19;88.64;101581.84;5002544;28;20116;-86
2021/08/22 08:25:12;;;;;;;17.65;11.52;;;;;;;18.95;89.34;101588.22;4997382;28;20023;-82
2021/08/22 08:27:38;;;;;;;17.92;11.07;;;;;;;18.92;89.75;101580.25;4999957;28;20033;-88
2021/08/22 08:30:24;;;;;;;18.55;11.85;;;;;;;18.97;91.46;101589.13;4996691;28;20572;-83
2021/08/22 08:32:50;;;;;;;14.45;10.05;;;;;;;18.98;89.83;101585.56;4998299;28;20037;-87
2021/08/22 08:35:15;;;;;;;16.95;10.90;;;;;;;18.97;90.24;101587.31;4996816;28;20192;-79
2021/08/22 08:37:42;;;;;;;18.50;12.27;;;;;;;19.03;92.28;101592.63;5003948;28;20596;-83
2021/08/22 08:40:34;;;;;;;15.00;10.27;;;;;;;19.01;89.81;101588.19;5010613;28;20124;-79
2021/08/22 08:43:22;;;;;;;16.98;11.73;;;;;;;18.87;91.81;101596.25;4998560;28;20035;-83
2021/08/22 08:45:50;;;;;;;22.60;11.10;;;;;;;18.63;94.12;101598.16;4995454;28;20022;-86
2021/08/22 08:49:28;;;;;;;;;;;;;;;;;;;;;
2021/08/22 10:13:37;;;;;;;;;;;;;;;;;;;;;
2021/08/22 10:17:27;;;;;;;;;;;;;;;;;;;;;
2021/08/22 10:53:14;;;;;;;;;;;;;;;;;;;;;
2021/08/22 11:00:08;;;;;;;;;;;;;;;;;;;;;
2021/08/22 11:10:37;;;;;;;;;;;;;;;;;;;;;
2021/08/22 11:13:26;;;;;;;7.60;5.10;;;;;;;17.39;98.74;101634.78;4819428;29;20043;-86
2021/08/22 12:17:06;;;;;;;14.82;7.38;;;;;;;17.72;100.00;101638.31;5030425;28;20029;-83
2021/08/22 12:20:32;;;;;;;16.25;8.23;;;;;;;18.17;100.00;101640.97;5047566;28;22093;-86
2021/08/22 12:23:34;;;;;;;12.73;7.55;;;;;;;19.46;100.00;101642.13;5010851;28;20417;-83
2021/08/22 12:26:23;;;;;;;9.05;5.00;;;;;;;20.77;92.39;101617.66;5037231;28;20084;-85
2021/08/22 12:29:09;;;;;;;8.65;4.43;;;;;;;21.95;85.81;101606.00;5029863;28;20084;-85
2021/08/22 12:32:52;;;;;;;;;;;;;;;;;;;;;
2021/08/22 12:36:18;;;;;;;4.85;2.33;;;;;;;22.77;75.43;101588.28;4989904;28;20044;-83
2021/08/22 12:50:27;;;;;;;3.45;1.38;;;;;;;22.76;74.19;101614.22;5005497;28;20046;-81
2021/08/22 12:53:26;;;;;;;1.65;1.48;;;;;;;22.83;77.05;101625.69;4994326;28;20049;-84
2021/08/22 12:56:53;;;;;;;1.90;1.70;;;;;;;22.34;75.80;101624.91;4999727;28;20046;-82
2021/08/22 12:59:46;;;;;;;1.90;1.70;;;;;;;22.23;77.60;101634.06;5004490;28;20050;-83
2021/08/22 13:02:59;;;;;;;3.60;1.95;;;;;;;21.94;78.48;101642.63;4998815;28;20041;-83
2021/08/22 13:05:34;;;;;;;3.20;1.60;;;;;;;21.90;75.58;101641.81;5005177;28;20056;-87
2021/08/22 13:08:39;;;;;;;3.60;2.03;;;;;;;22.55;76.67;101651.31;5014621;28;20021;-83
2021/08/22 13:11:08;;;;;;;3.60;2.20;;;;;;;23.03;71.71;101646.72;4991411;28;20047;-79
2021/08/22 13:14:18;;;;;;;3.78;2.92;;;;;;;23.03;69.02;101636.00;5009851;28;20022;-83
2021/08/22 13:17:24;;;;;;;3.75;1.73;;;;;;;21.98;73.43;101649.72;5029956;28;20110;-80
2021/08/22 13:19:50;;;;;;;4.65;2.92;;;;;;;21.87;75.73;101668.66;5002660;28;20061;-82
2021/08/22 13:22:24;;;;;;;5.10;3.00;;;;;;;21.77;76.98;101671.53;4996864;28;20049;-86
2021/08/22 13:25:04;;;;;;;5.40;2.25;;;;;;;21.47;75.45;101663.91;4981235;28;20067;-86
2021/08/22 13:28:09;;;;;;;2.60;2.03;;;;;;;21.18;76.74;101662.56;5003313;28;20057;-80
2021/08/22 13:30:38;;;;;;;2.25;1.92;;;;;;;21.02;78.02;101671.75;5003164;28;20063;-82
2021/08/22 13:33:04;;;;;;;3.47;2.13;;;;;;;20.95;78.37;101664.72;5000382;28;20101;-87
2021/08/22 13:36:00;;;;;;;2.10;1.90;;;;;;;20.98;79.27;101665.53;4996883;28;20057;-83
2021/08/22 13:38:25;;;;;;;3.78;2.50;;;;;;;21.19;79.55;101669.72;5022091;28;20038;-83
2021/08/22 13:41:15;;;;;;;3.40;2.00;;;;;;;21.14;78.28;101666.22;4997575;28;20036;-84
2021/08/22 13:43:40;;;;;;;4.65;2.10;;;;;;;21.28;76.05;101673.16;4996579;28;20559;-86
2021/08/22 13:46:26;;;;;;;2.47;1.88;;;;;;;21.20;78.03;101678.59;4995504;28;20113;-80
2021/08/22 13:49:28;;;;;;;5.18;2.38;;;;;;;21.06;75.91;101673.47;5008545;28;20034;-83
2021/08/22 13:52:13;;;;;;;2.13;1.33;;;;;;;20.95;75.30;101686.13;4994650;28;20120;-81
2021/08/22 13:54:57;;;;;;;3.00;2.00;;;;;;;20.81;77.31;101696.97;5001160;28;20034;-83
2021/08/22 13:57:45;;;;;;;;;;;;;;;20.59;77.95;101691.88;5008237;28;20472;-86
2021/08/22 14:00:56;;;;;;;2.35;1.83;;;;;;;20.67;80.73;101708.72;5006275;28;19960;-86
2021/08/22 14:06:37;;;;;;;4.95;2.00;;;;;;;21.02;79.73;101711.88;5001730;28;20126;-90
2021/08/22 14:09:02;;;;;;;5.63;2.30;;;;;;;20.96;77.06;101711.94;5005739;28;20472;-83
2021/08/22 14:11:50;;;;;;;4.90;1.88;;;;;;;21.17;76.92;101708.09;5004331;28;20045;-84
2021/08/22 14:14:18;;;;;;;2.53;1.33;;;;;;;21.23;75.23;101706.22;5021190;28;20054;-83
2021/08/22 14:17:02;;;;;;;2.65;1.83;;;;;;;21.32;76.24;101707.88;5010734;28;20124;-83
2021/08/22 14:20:12;;;;;;;3.75;2.38;;;;;;;21.44;76.48;101722.88;5010802;28;20039;-83
2021/08/22 14:22:49;;;;;;;4.00;2.10;;;;;;;21.38;74.81;101723.00;4996875;28;20129;-87
2021/08/22 14:25:24;;;;;;;2.00;1.80;;;;;;;21.06;75.43;101724.31;5006917;28;20083;-83
2021/08/22 14:27:52;;;;;;;2.85;1.50;;;;;;;20.88;76.76;101728.13;5006577;28;20026;-83
2021/08/22 14:30:20;;;;;;;1.98;1.38;;;;;;;21.12;76.24;101726.91;5007971;28;20477;-83
2021/08/22 14:32:51;;;;;;;1.33;1.20;;;;;;;21.02;74.53;101720.78;5000404;28;20030;-89
2021/08/22 14:35:42;;;;;;;1.83;1.55;;;;;;;21.18;75.04;101718.78;5008860;28;20381;-85
2021/08/22 14:38:07;;;;;;;2.28;1.33;;;;;;;21.32;76.24;101723.06;5020175;28;20096;-82
2021/08/22 14:40:59;;;;;;;1.30;1.20;;;;;;;21.44;75.34;101716.66;5011528;28;20483;-84
2021/08/22 14:43:25;;;;;;;2.08;1.17;;;;;;;21.77;73.38;101715.28;5008629;28;20068;-84
2021/08/22 14:46:02;;;;;;;1.92;1.20;;;;;;;21.73;70.24;101710.88;5010487;28;20095;-82
2021/08/22 14:48:45;;;;;;;3.20;0.93;;;;;;;21.67;71.58;101713.66;5004150;28;20025;-89
2021/08/22 14:51:11;;;;;;;1.30;1.00;;;;;;;21.76;71.83;101713.50;5012482;28;20029;-85
2021/08/22 14:53:39;;;;;;;1.08;0.98;;;;;;;21.67;70.87;101719.00;5003610;28;20035;-86
2021/08/22 14:56:30;;;;;;;1.85;1.13;;;;;;;21.34;72.73;101721.25;5006042;28;20057;-84
2021/08/22 14:59:24;;;;;;;1.73;1.25;;;;;;;20.93;74.33;101725.38;5010330;28;20026;-85
2021/08/22 15:02:02;;;;;;;1.30;1.20;;;;;;;20.83;76.67;101730.81;5000645;28;20564;-84
2021/08/22 15:04:28;;;;;;;2.65;1.10;;;;;;;20.85;75.58;101729.03;5010195;28;20038;-84
2021/08/22 15:07:25;;;;;;;1.85;1.20;;;;;;;21.11;73.36;101725.13;5010077;28;20084;-79
2021/08/22 15:13:45;;;;;;;;;;;;;;;;;;;;;
2021/08/22 15:16:20;;;;;;;1.65;1.08;;;;;;;21.30;75.07;101727.56;5014513;28;20029;-81
2021/08/22 15:18:49;;;;;;;3.10;1.17;;;;;;;21.47;74.02;101730.00;5001458;28;20095;-85
2021/08/22 15:21:37;;;;;;;1.90;1.40;;;;;;;21.59;73.58;101731.66;4999211;28;20018;-83
2021/08/22 15:24:22;;;;;;;1.80;1.27;;;;;;;21.26;75.03;101744.59;4998137;28;20079;-83
2021/08/22 15:27:30;;;;;;;2.28;1.27;;;;;;;21.37;77.40;101742.63;5010683;28;20030;-86
2021/08/22 15:30:06;;;;;;;4.60;1.80;;;;;;;21.39;76.26;101746.16;5010854;28;20030;-83
2021/08/22 15:36:16;;;;;;;;;;;;;;;;;;;;;
2021/08/22 15:39:07;;;;;;;2.05;1.30;;;;;;;21.35;72.94;101741.75;5003245;28;20034;-83
2021/08/22 15:42:28;;;;;;;4.90;2.60;;;;;;;21.23;74.10;101751.75;5007617;28;20045;-82
2021/08/22 15:45:13;;;;;;;;;;;;;;;;;;;;;
2021/08/22 15:48:08;;;;;;;4.30;1.80;;;;;;;20.89;74.78;101762.00;5011961;28;20052;-84